createdAt,value
2022-11-16T00:00:04.435Z,86.07
2022-11-16T00:02:37.324Z,86.30
2022-11-16T00:05:08.855Z,86.39
2022-11-16T00:07:40.393Z,86.52
2022-11-16T00:10:11.879Z,86.11
2022-11-16T00:12:43.178Z,86.35
2022-11-16T00:15:14.453Z,86.07
2022-11-16T00:17:45.699Z,85.81
2022-11-16T00:20:16.994Z,86.08
2022-11-16T00:22:48.327Z,85.95
2022-11-16T00:25:19.580Z,86.36
2022-11-16T00:27:50.841Z,86.38
2022-11-16T00:30:22.129Z,86.39
2022-11-16T00:32:53.529Z,86.26
2022-11-16T00:35:24.794Z,86.52
2022-11-16T00:37:56.056Z,86.09
2022-11-16T00:40:27.326Z,86.20
2022-11-16T00:42:58.642Z,86.39
2022-11-16T00:45:29.973Z,86.10
2022-11-16T00:48:01.256Z,86.20
2022-11-16T00:50:32.582Z,86.20
2022-11-16T00:53:05.166Z,86.49
2022-11-16T00:55:37.542Z,86.11
2022-11-16T00:58:08.826Z,86.62
2022-11-16T01:00:40.985Z,85.90
2022-11-16T01:03:12.368Z,85.89
2022-11-16T01:05:43.650Z,85.76
2022-11-16T01:08:14.921Z,86.15
2022-11-16T01:10:46.193Z,86.30
2022-11-16T01:13:17.468Z,86.05
2022-11-16T01:15:48.898Z,86.57
2022-11-16T01:18:20.151Z,86.06
2022-11-16T01:20:53.513Z,86.11
2022-11-16T01:23:24.863Z,86.53
2022-11-16T01:26:01.730Z,86.41
2022-11-16T01:28:33.480Z,86.58
2022-11-16T01:31:05.045Z,86.30
2022-11-16T01:33:36.973Z,86.18
2022-11-16T01:36:14.180Z,86.10
2022-11-16T01:38:47.079Z,86.24
2022-11-16T01:41:22.026Z,86.35
2022-11-16T01:43:56.014Z,86.87
2022-11-16T01:46:28.825Z,86.60
2022-11-16T01:49:08.029Z,86.28
2022-11-16T01:51:42.463Z,86.44
2022-11-16T01:54:14.467Z,86.28
2022-11-16T01:56:48.075Z,86.51
2022-11-16T01:59:19.498Z,86.91
2022-11-16T02:01:50.820Z,86.71
2022-11-16T02:04:22.128Z,86.71
2022-11-16T02:07:30.144Z,86.82
2022-11-16T02:10:28.937Z,86.90
2022-11-16T02:13:45.511Z,87.00
2022-11-16T02:16:42.025Z,87.00
2022-11-16T02:19:24.311Z,86.61
2022-11-16T02:22:34.347Z,86.39
2022-11-16T02:25:29.426Z,86.44
2022-11-16T02:28:29.744Z,86.66
2022-11-16T02:31:05.420Z,87.17
2022-11-16T02:33:41.669Z,86.34
2022-11-16T02:36:15.202Z,87.28
2022-11-16T02:38:54.342Z,87.31
2022-11-16T02:41:28.413Z,86.72
2022-11-16T02:44:21.417Z,87.25
2022-11-16T02:46:58.308Z,86.83
2022-11-16T02:49:32.589Z,86.82
2022-11-16T02:52:04.740Z,87.17
2022-11-16T02:54:36.005Z,87.06
2022-11-16T02:57:07.274Z,86.87
2022-11-16T02:59:44.315Z,87.59
2022-11-16T03:02:38.140Z,87.55
2022-11-16T03:05:20.296Z,87.34
2022-11-16T03:08:09.839Z,87.34
2022-11-16T03:11:03.396Z,87.10
2022-11-16T03:13:37.403Z,87.43
2022-11-16T03:16:23.193Z,87.06
2022-11-16T03:18:58.304Z,87.81
2022-11-16T03:21:58.037Z,87.56
2022-11-16T03:24:29.465Z,87.07
2022-11-16T03:27:21.708Z,87.22
2022-11-16T03:29:52.932Z,87.10
2022-11-16T03:32:33.417Z,87.56
2022-11-16T03:35:26.473Z,87.26
2022-11-16T03:38:00.413Z,87.78
2022-11-16T03:40:34.240Z,87.57
2022-11-16T03:43:07.711Z,87.83
2022-11-16T03:45:39.033Z,87.64
2022-11-16T03:48:11.567Z,87.21
2022-11-16T03:50:43.657Z,87.63
2022-11-16T03:53:14.998Z,87.74
2022-11-16T03:55:49.754Z,87.60
2022-11-16T03:58:21.714Z,87.11
2022-11-16T04:00:53.351Z,87.64
2022-11-16T04:03:24.677Z,87.18
2022-11-16T04:06:14.489Z,87.52
2022-11-16T04:09:04.221Z,87.15
2022-11-16T04:11:54.633Z,87.16
2022-11-16T04:14:46.170Z,87.67
2022-11-16T04:17:37.671Z,87.23
2022-11-16T04:20:29.605Z,87.57
2022-11-16T04:23:27.906Z,87.50
2022-11-16T04:25:59.872Z,87.84
2022-11-16T04:28:34.291Z,87.99
2022-11-16T04:31:24.996Z,88.07
2022-11-16T04:34:14.821Z,88.03
2022-11-16T04:37:05.740Z,88.17
2022-11-16T04:39:37.073Z,87.87
2022-11-16T04:42:22.186Z,88.16
2022-11-16T04:45:11.928Z,87.69
2022-11-16T04:47:43.206Z,88.33
2022-11-16T04:50:14.558Z,88.42
2022-11-16T04:52:46.011Z,88.29
2022-11-16T04:55:17.445Z,88.57
2022-11-16T04:57:49.036Z,88.46
2022-11-16T05:00:21.154Z,88.47
2022-11-16T05:02:55.688Z,88.20
2022-11-16T05:05:31.191Z,88.74
2022-11-16T05:08:02.495Z,88.49
2022-11-16T05:10:33.868Z,88.56
2022-11-16T05:13:05.159Z,88.60
2022-11-16T05:15:36.428Z,88.78
2022-11-16T05:18:07.693Z,88.51
2022-11-16T05:20:57.388Z,88.84
2022-11-16T05:23:47.424Z,88.97
2022-11-16T05:26:18.788Z,88.94
2022-11-16T05:28:50.053Z,88.81
2022-11-16T05:31:21.319Z,88.70
2022-11-16T05:33:52.597Z,88.51
2022-11-16T05:36:23.954Z,88.86
2022-11-16T05:38:56.470Z,88.98
2022-11-16T05:41:27.970Z,88.90
2022-11-16T05:43:59.443Z,89.09
2022-11-16T05:46:30.759Z,89.17
2022-11-16T05:49:02.153Z,89.09
2022-11-16T05:51:35.309Z,89.08
2022-11-16T05:54:06.839Z,89.26
2022-11-16T05:56:38.491Z,88.81
2022-11-16T05:59:16.432Z,88.76
2022-11-16T06:01:48.227Z,88.80
2022-11-16T06:04:24.333Z,89.23
2022-11-16T06:06:56.046Z,88.92
2022-11-16T06:09:27.419Z,89.27
2022-11-16T06:11:58.822Z,88.96
2022-11-16T06:14:30.109Z,89.05
2022-11-16T06:17:01.377Z,88.97
2022-11-16T06:19:32.861Z,89.07
2022-11-16T06:22:04.206Z,88.96
2022-11-16T06:24:35.529Z,88.88
2022-11-16T06:27:06.793Z,89.08
2022-11-16T06:29:38.047Z,89.23
2022-11-16T06:32:09.389Z,89.17
2022-11-16T06:34:40.674Z,89.32
2022-11-16T06:37:12.020Z,89.15
2022-11-16T06:39:43.299Z,89.22
2022-11-16T06:42:14.636Z,89.53
2022-11-16T06:44:45.887Z,89.09
2022-11-16T06:47:17.148Z,89.17
2022-11-16T06:49:48.431Z,89.21
2022-11-16T06:52:19.747Z,88.89
2022-11-16T06:54:51.036Z,89.31
2022-11-16T06:57:22.457Z,89.02
2022-11-16T06:59:53.919Z,88.78
2022-11-16T07:02:25.179Z,89.12
2022-11-16T07:05:02.090Z,89.56
2022-11-16T07:07:34.750Z,89.37
2022-11-16T07:10:07.340Z,89.24
2022-11-16T07:12:38.781Z,88.99
2022-11-16T07:15:10.445Z,89.37
2022-11-16T07:17:42.810Z,89.31
2022-11-16T07:20:14.186Z,89.17
2022-11-16T07:22:45.519Z,89.33
2022-11-16T07:25:16.815Z,89.10
2022-11-16T07:27:48.067Z,89.21
2022-11-16T07:30:19.495Z,89.43
2022-11-16T07:32:50.773Z,89.20
2022-11-16T07:35:22.029Z,89.38
2022-11-16T07:37:53.364Z,88.79
2022-11-16T07:40:24.753Z,89.36
2022-11-16T07:42:57.713Z,89.47
2022-11-16T07:45:29.252Z,89.30
2022-11-16T07:48:00.929Z,88.85
2022-11-16T07:50:32.247Z,88.96
2022-11-16T07:53:03.517Z,89.14
2022-11-16T07:55:34.841Z,89.36
2022-11-16T07:58:06.168Z,89.22
2022-11-16T08:00:37.447Z,89.09
2022-11-16T08:03:08.817Z,88.82
2022-11-16T08:05:40.234Z,88.92
2022-11-16T08:08:12.619Z,88.97
2022-11-16T08:10:44.212Z,88.97
2022-11-16T08:13:15.949Z,88.99
2022-11-16T08:15:47.269Z,89.14
2022-11-16T08:18:19.929Z,89.23
2022-11-16T08:20:55.384Z,89.03
2022-11-16T08:23:26.646Z,88.77
2022-11-16T08:26:06.364Z,88.67
2022-11-16T08:28:37.817Z,88.80
2022-11-16T08:31:15.121Z,89.06
2022-11-16T08:33:47.965Z,88.94
2022-11-16T08:36:20.072Z,88.85
2022-11-16T08:38:52.387Z,89.11
2022-11-16T08:41:24.167Z,88.34
2022-11-16T08:43:55.545Z,88.80
2022-11-16T08:46:27.001Z,88.57
2022-11-16T08:48:58.443Z,88.50
2022-11-16T08:51:29.813Z,88.38
2022-11-16T08:54:03.553Z,88.26
2022-11-16T08:56:35.031Z,88.94
2022-11-16T08:59:06.498Z,88.35
2022-11-16T09:01:38.001Z,88.55
2022-11-16T09:04:09.336Z,88.35
2022-11-16T09:06:40.611Z,88.39
2022-11-16T09:09:11.941Z,88.12
2022-11-16T09:11:43.309Z,88.21
2022-11-16T09:14:14.591Z,88.19
2022-11-16T09:16:45.888Z,88.22
2022-11-16T09:19:17.563Z,88.10
2022-11-16T09:21:48.894Z,87.87
2022-11-16T09:24:20.237Z,88.21
2022-11-16T09:26:51.588Z,88.22
2022-11-16T09:29:22.868Z,87.58
2022-11-16T09:31:55.088Z,87.55
2022-11-16T09:34:26.350Z,87.61
2022-11-16T09:36:57.666Z,87.58
2022-11-16T09:39:32.242Z,88.14
2022-11-16T09:42:32.776Z,88.44
2022-11-16T09:45:12.294Z,88.34
2022-11-16T09:47:51.634Z,88.25
2022-11-16T09:50:42.960Z,88.32
2022-11-16T09:53:25.758Z,88.43
2022-11-16T09:56:08.646Z,88.12
2022-11-16T09:58:48.571Z,88.50
2022-11-16T10:01:46.540Z,88.79
2022-11-16T10:04:38.414Z,89.00
2022-11-16T10:07:22.516Z,89.28
2022-11-16T10:09:56.041Z,89.09
2022-11-16T10:13:03.384Z,89.51
2022-11-16T10:15:53.145Z,89.68
2022-11-16T10:18:53.477Z,89.50
2022-11-16T10:21:54.407Z,89.96
2022-11-16T10:24:34.681Z,90.01
2022-11-16T10:27:27.631Z,90.16
2022-11-16T10:30:12.290Z,90.53
2022-11-16T10:32:59.626Z,90.66
2022-11-16T10:35:37.011Z,90.44
2022-11-16T10:38:14.148Z,90.84
2022-11-16T10:40:58.781Z,91.04
2022-11-16T10:43:32.382Z,91.11
2022-11-16T10:46:03.884Z,91.36
2022-11-16T10:48:57.487Z,91.14
2022-11-16T10:51:28.857Z,91.40
2022-11-16T10:54:00.416Z,91.47
2022-11-16T10:56:39.574Z,91.48
2022-11-16T10:59:13.600Z,91.79
2022-11-16T11:01:51.104Z,91.30
2022-11-16T11:04:24.833Z,91.86
2022-11-16T11:07:01.647Z,91.98
2022-11-16T11:09:34.522Z,92.01
2022-11-16T11:12:30.674Z,91.97
2022-11-16T11:15:10.839Z,92.15
2022-11-16T11:17:44.985Z,92.11
2022-11-16T11:20:16.447Z,92.05
2022-11-16T11:23:13.806Z,92.49
2022-11-16T11:25:55.287Z,92.19
2022-11-16T11:28:32.714Z,92.33
2022-11-16T11:31:09.439Z,92.54
2022-11-16T11:33:52.326Z,92.48
2022-11-16T11:36:35.197Z,92.62
2022-11-16T11:39:08.205Z,92.42
2022-11-16T11:41:44.625Z,92.76
2022-11-16T11:44:17.822Z,92.78
2022-11-16T11:47:42.499Z,92.70
2022-11-16T11:49:53.244Z,92.98
2022-11-16T11:52:36.699Z,93.23
2022-11-16T11:55:08.691Z,93.23
2022-11-16T11:57:43.584Z,93.30
2022-11-16T12:00:15.862Z,92.87
2022-11-16T12:03:14.857Z,93.60
2022-11-16T12:06:07.445Z,93.43
2022-11-16T12:09:06.116Z,93.30
2022-11-16T12:12:15.152Z,93.38
2022-11-16T12:15:15.590Z,93.32
2022-11-16T12:18:18.274Z,93.43
2022-11-16T12:20:59.861Z,93.90
2022-11-16T12:23:49.890Z,93.84
2022-11-16T12:26:55.547Z,93.69
2022-11-16T12:29:40.446Z,93.68
2022-11-16T12:32:29.925Z,93.93
2022-11-16T12:35:24.483Z,93.73
2022-11-16T12:38:10.566Z,94.01
2022-11-16T12:40:57.957Z,94.38
2022-11-16T12:43:56.291Z,94.01
2022-11-16T12:46:48.556Z,94.27
2022-11-16T12:49:34.933Z,94.02
2022-11-16T12:52:41.083Z,94.21
2022-11-16T12:55:50.207Z,94.44
2022-11-16T12:58:36.626Z,94.25
2022-11-16T13:01:20.782Z,94.25
2022-11-16T13:04:28.344Z,93.91
2022-11-16T13:07:11.599Z,94.33
2022-11-16T13:09:48.916Z,94.09
2022-11-16T13:12:23.379Z,94.53
2022-11-16T13:14:57.573Z,94.41
2022-11-16T13:17:33.097Z,94.11
2022-11-16T13:20:20.785Z,94.17
2022-11-16T13:23:09.249Z,94.29
2022-11-16T13:25:51.142Z,94.53
2022-11-16T13:28:56.603Z,94.43
2022-11-16T13:31:39.518Z,94.69
2022-11-16T13:34:26.087Z,94.58
2022-11-16T13:36:57.525Z,94.61
2022-11-16T13:39:50.644Z,94.50
2022-11-16T13:42:21.988Z,94.63
2022-11-16T13:44:54.216Z,94.34
2022-11-16T13:47:30.366Z,94.78
2022-11-16T13:50:05.096Z,94.82
2022-11-16T13:54:03.786Z,94.75
2022-11-16T13:55:46.368Z,94.94
2022-11-16T13:58:22.453Z,94.92
2022-11-16T14:00:58.641Z,95.02
2022-11-16T14:03:31.972Z,95.06
2022-11-16T14:06:18.681Z,95.23
2022-11-16T14:08:52.313Z,95.36
2022-11-16T14:11:38.688Z,95.49
2022-11-16T14:14:51.578Z,95.35
2022-11-16T14:17:49.089Z,95.68
2022-11-16T14:20:27.604Z,95.58
2022-11-16T14:23:45.834Z,96.27
2022-11-16T14:26:27.819Z,95.56
2022-11-16T14:29:20.579Z,96.25
2022-11-16T14:31:55.791Z,95.91
2022-11-16T14:34:32.099Z,96.16
2022-11-16T14:37:03.368Z,96.14
2022-11-16T14:39:37.472Z,96.06
2022-11-16T14:42:14.631Z,96.28
2022-11-16T14:44:46.916Z,96.20
2022-11-16T14:47:26.820Z,96.41
2022-11-16T14:49:58.139Z,96.52
2022-11-16T14:52:39.934Z,96.56
2022-11-16T14:55:20.025Z,96.54
2022-11-16T14:58:16.557Z,96.59
2022-11-16T15:00:57.014Z,96.72
2022-11-16T15:03:34.043Z,96.89
2022-11-16T15:06:07.307Z,96.75
2022-11-16T15:08:44.981Z,96.50
2022-11-16T15:11:56.471Z,96.95
2022-11-16T15:14:34.403Z,97.06
2022-11-16T15:17:07.696Z,97.18
2022-11-16T15:19:38.974Z,96.91
2022-11-16T15:22:17.229Z,96.91
2022-11-16T15:24:57.088Z,96.88
2022-11-16T15:27:38.584Z,97.46
2022-11-16T15:30:34.407Z,96.92
2022-11-16T15:33:11.455Z,97.44
2022-11-16T15:35:42.752Z,97.45
2022-11-16T15:38:21.827Z,97.31
2022-11-16T15:40:58.760Z,97.47
2022-11-16T15:43:45.154Z,97.44
2022-11-16T15:46:29.146Z,97.60
2022-11-16T15:49:01.122Z,97.55
2022-11-16T15:51:32.463Z,97.66
2022-11-16T15:54:24.339Z,97.64
2022-11-16T15:57:04.998Z,97.59
2022-11-16T15:59:37.138Z,97.42
2022-11-16T16:02:18.200Z,98.06
2022-11-16T16:04:50.276Z,98.06
2022-11-16T16:07:42.941Z,98.43
2022-11-16T16:10:20.121Z,98.51
2022-11-16T16:12:57.024Z,98.49
2022-11-16T16:15:34.009Z,98.99
2022-11-16T16:18:34.925Z,99.10
2022-11-16T16:21:06.458Z,99.13
2022-11-16T16:23:49.653Z,99.25
2022-11-16T16:26:22.305Z,99.45
2022-11-16T16:28:53.613Z,99.52
2022-11-16T16:31:24.938Z,99.43
2022-11-16T16:33:56.260Z,99.40
2022-11-16T16:36:27.606Z,99.39
2022-11-16T16:38:58.876Z,99.35
2022-11-16T16:41:30.129Z,99.77
2022-11-16T16:44:01.400Z,99.84
2022-11-16T16:46:32.656Z,99.22
2022-11-16T16:49:03.912Z,99.88
2022-11-16T16:51:35.206Z,99.84
2022-11-16T16:54:06.825Z,99.34
2022-11-16T16:56:38.122Z,100.00
2022-11-16T16:59:12.308Z,100.00
2022-11-16T17:01:43.611Z,100.00
2022-11-16T17:04:14.921Z,99.53
2022-11-16T17:06:46.755Z,100.00
2022-11-16T17:09:18.548Z,100.00
2022-11-16T17:11:49.919Z,100.00
2022-11-16T17:14:24.511Z,100.00
2022-11-16T17:16:55.804Z,100.00
2022-11-16T17:19:28.177Z,100.00
2022-11-16T17:21:59.963Z,100.00
2022-11-16T17:24:31.369Z,100.00
2022-11-16T17:27:03.059Z,100.00
2022-11-16T17:29:34.473Z,100.00
2022-11-16T17:32:06.037Z,100.00
2022-11-16T17:34:39.855Z,100.00
2022-11-16T17:37:11.362Z,100.00
2022-11-16T17:39:42.931Z,100.00
2022-11-16T17:42:14.285Z,100.00
2022-11-16T17:44:45.593Z,100.00
2022-11-16T17:47:16.893Z,100.00
2022-11-16T17:49:48.316Z,100.00
2022-11-16T17:52:19.595Z,100.00
2022-11-16T17:54:50.965Z,100.00
2022-11-16T17:57:22.285Z,100.00
2022-11-16T17:59:53.717Z,100.00
2022-11-16T18:02:25.206Z,100.00
2022-11-16T18:04:56.468Z,100.00
2022-11-16T18:07:30.053Z,100.00
2022-11-16T18:10:01.514Z,100.00
2022-11-16T18:12:32.799Z,100.00
2022-11-16T18:15:27.609Z,100.00
2022-11-16T18:17:56.775Z,100.00
2022-11-16T18:20:29.294Z,100.00
2022-11-16T18:23:00.812Z,100.00
2022-11-16T18:25:34.263Z,100.00
2022-11-16T18:28:05.553Z,100.00
2022-11-16T18:30:38.476Z,100.00
2022-11-16T18:33:10.270Z,100.00
2022-11-16T18:35:42.110Z,100.00
2022-11-16T18:38:13.454Z,100.00
2022-11-16T18:40:44.809Z,100.00
2022-11-16T18:43:16.068Z,100.00
2022-11-16T18:45:47.452Z,100.00
2022-11-16T18:48:18.727Z,100.00
2022-11-16T18:50:50.150Z,100.00
2022-11-16T18:53:21.413Z,100.00
2022-11-16T18:55:57.698Z,100.00
2022-11-16T18:58:58.618Z,100.00
2022-11-16T19:01:23.921Z,100.00
2022-11-16T19:03:56.265Z,100.00
2022-11-16T19:06:31.620Z,100.00
2022-11-16T19:09:04.272Z,100.00
2022-11-16T19:11:35.944Z,100.00
2022-11-16T19:14:10.181Z,100.00
2022-11-16T19:16:52.564Z,100.00
2022-11-16T19:19:27.705Z,100.00
2022-11-16T19:21:59.096Z,100.00
2022-11-16T19:24:30.468Z,100.00
2022-11-16T19:27:01.867Z,100.00
2022-11-16T19:29:33.174Z,100.00
2022-11-16T19:32:05.604Z,100.00
2022-11-16T19:34:36.900Z,100.00
2022-11-16T19:37:10.807Z,100.00
2022-11-16T19:39:42.302Z,100.00
2022-11-16T19:42:13.623Z,100.00
2022-11-16T19:44:44.974Z,100.00
2022-11-16T19:47:16.303Z,100.00
2022-11-16T19:49:50.000Z,100.00
2022-11-16T19:52:21.491Z,100.00
2022-11-16T19:54:52.831Z,100.00
2022-11-16T19:57:24.244Z,100.00
2022-11-16T19:59:56.222Z,100.00
2022-11-16T20:02:27.596Z,100.00
2022-11-16T20:04:59.945Z,100.00
2022-11-16T20:07:31.303Z,100.00
2022-11-16T20:10:02.619Z,100.00
2022-11-16T20:12:34.007Z,100.00
2022-11-16T20:15:05.790Z,100.00
2022-11-16T20:17:37.110Z,100.00
2022-11-16T20:20:08.979Z,100.00
2022-11-16T20:22:40.342Z,100.00
2022-11-16T20:25:11.743Z,100.00
2022-11-16T20:27:43.151Z,100.00
2022-11-16T20:30:14.506Z,100.00
2022-11-16T20:32:46.037Z,100.00
2022-11-16T20:35:19.209Z,100.00
2022-11-16T20:37:50.806Z,100.00
2022-11-16T20:40:22.257Z,100.00
2022-11-16T20:42:58.896Z,100.00
2022-11-16T20:45:33.446Z,100.00
2022-11-16T20:48:06.315Z,100.00
2022-11-16T20:50:37.573Z,100.00
2022-11-16T20:53:08.844Z,100.00
2022-11-16T20:55:41.164Z,100.00
2022-11-16T20:58:12.462Z,100.00
2022-11-16T21:00:44.124Z,100.00
2022-11-16T21:03:15.822Z,100.00
2022-11-16T21:05:51.631Z,100.00
2022-11-16T21:08:24.270Z,100.00
2022-11-16T21:10:57.128Z,100.00
2022-11-16T21:13:47.380Z,100.00
2022-11-16T21:16:18.708Z,100.00
2022-11-16T21:18:50.003Z,100.00
2022-11-16T21:21:21.757Z,100.00
2022-11-16T21:23:54.055Z,100.00
2022-11-16T21:26:31.287Z,100.00
2022-11-16T21:29:03.489Z,100.00
2022-11-16T21:31:36.344Z,100.00
2022-11-16T21:34:07.734Z,100.00
2022-11-16T21:36:39.282Z,100.00
2022-11-16T21:39:10.612Z,100.00
2022-11-16T21:41:41.900Z,100.00
2022-11-16T21:44:13.195Z,100.00
2022-11-16T21:46:44.456Z,100.00
2022-11-16T21:49:15.720Z,100.00
2022-11-16T21:51:46.985Z,100.00
2022-11-16T21:54:18.336Z,100.00
2022-11-16T21:56:49.589Z,100.00
2022-11-16T21:59:20.856Z,100.00
2022-11-16T22:02:01.099Z,100.00
2022-11-16T22:04:50.897Z,100.00
2022-11-16T22:07:37.938Z,100.00
2022-11-16T22:10:11.336Z,100.00
2022-11-16T22:12:42.723Z,100.00
2022-11-16T22:15:14.088Z,100.00
2022-11-16T22:17:45.608Z,100.00
2022-11-16T22:20:17.482Z,100.00
2022-11-16T22:22:48.814Z,100.00
2022-11-16T22:25:20.191Z,100.00
2022-11-16T22:28:19.029Z,100.00
2022-11-16T22:30:45.115Z,100.00
2022-11-16T22:33:20.023Z,100.00
2022-11-16T22:35:51.284Z,100.00
2022-11-16T22:38:22.855Z,100.00
2022-11-16T22:40:59.922Z,100.00
2022-11-16T22:43:31.543Z,100.00
2022-11-16T22:46:05.064Z,100.00
2022-11-16T22:48:39.397Z,100.00
2022-11-16T22:51:19.507Z,100.00
2022-11-16T22:53:54.743Z,100.00
2022-11-16T22:56:26.848Z,100.00
2022-11-16T22:58:58.872Z,100.00
2022-11-16T23:01:30.158Z,100.00
2022-11-16T23:04:01.758Z,100.00
2022-11-16T23:06:33.101Z,100.00
2022-11-16T23:09:04.478Z,100.00
2022-11-16T23:11:54.621Z,100.00
2022-11-16T23:14:44.558Z,100.00
2022-11-16T23:17:15.848Z,100.00
2022-11-16T23:20:05.824Z,100.00
2022-11-16T23:22:55.440Z,100.00
2022-11-16T23:25:45.573Z,100.00
2022-11-16T23:28:18.755Z,100.00
2022-11-16T23:30:50.089Z,100.00
2022-11-16T23:33:41.325Z,100.00
2022-11-16T23:36:12.840Z,100.00
2022-11-16T23:38:44.151Z,100.00
2022-11-16T23:41:34.022Z,100.00
2022-11-16T23:44:05.276Z,100.00
2022-11-16T23:46:36.633Z,100.00
2022-11-16T23:49:07.939Z,100.00
2022-11-16T23:51:39.296Z,100.00
2022-11-16T23:54:10.648Z,100.00
2022-11-16T23:56:41.997Z,100.00
2022-11-16T23:59:13.249Z,100.00
